createdAt,value
2022-08-23T00:00:52.376Z,101390.59
2022-08-23T00:06:18.306Z,101362.53
2022-08-23T00:11:43.784Z,101388.69
2022-08-23T00:17:09.115Z,101387.66
2022-08-23T00:22:33.477Z,101391.84
2022-08-23T00:27:56.710Z,101378.16
2022-08-23T00:33:21.779Z,101383.16
2022-08-23T00:38:46.423Z,101378.53
2022-08-23T00:44:32.586Z,101382.72
2022-08-23T00:49:59.425Z,101380.63
2022-08-23T00:55:24.706Z,101375.28
2022-08-23T01:00:48.612Z,101367.72
2022-08-23T01:06:15.779Z,101380.63
2022-08-23T01:11:46.419Z,101374.34
2022-08-23T01:17:11.680Z,101379.31
2022-08-23T01:22:41.732Z,101383.47
2022-08-23T01:28:06.501Z,101381.00
2022-08-23T01:33:29.820Z,101377.66
2022-08-23T01:38:53.098Z,101377.59
2022-08-23T01:44:17.624Z,101348.50
2022-08-23T01:49:40.773Z,101377.41
2022-08-23T01:55:04.623Z,101380.91
2022-08-23T02:00:32.874Z,101369.78
2022-08-23T02:05:56.419Z,101374.44
2022-08-23T02:11:22.606Z,101368.81
2022-08-23T02:17:03.256Z,101383.72
2022-08-23T02:22:28.528Z,101378.50
2022-08-23T02:27:51.615Z,101381.25
2022-08-23T02:33:16.578Z,101372.03
2022-08-23T02:38:40.375Z,101372.41
2022-08-23T02:44:04.095Z,101388.16
2022-08-23T02:49:28.678Z,101403.22
2022-08-23T02:54:53.286Z,101399.88
2022-08-23T03:00:21.916Z,101413.38
2022-08-23T03:05:48.527Z,101401.38
2022-08-23T03:11:15.448Z,101393.22
2022-08-23T03:16:41.504Z,101402.75
2022-08-23T03:22:13.922Z,101383.25
2022-08-23T03:27:38.290Z,101424.88
2022-08-23T03:33:07.843Z,101410.59
2022-08-23T03:38:33.424Z,101415.38
2022-08-23T03:43:56.759Z,101410.41
2022-08-23T03:49:21.383Z,101426.16
2022-08-23T03:54:50.218Z,101421.91
2022-08-23T04:00:20.239Z,101415.63
2022-08-23T04:05:44.867Z,101421.72
2022-08-23T04:11:14.541Z,101415.44
2022-08-23T04:16:48.499Z,101422.66
2022-08-23T04:22:13.081Z,101418.97
2022-08-23T04:27:38.775Z,101411.19
2022-08-23T04:33:01.994Z,101395.94
2022-08-23T04:38:27.596Z,101413.50
2022-08-23T04:43:56.304Z,101416.16
2022-08-23T04:49:24.456Z,101424.06
2022-08-23T04:54:48.539Z,101426.09
2022-08-23T05:00:50.819Z,101436.69
2022-08-23T05:06:17.351Z,101437.16
2022-08-23T05:11:40.524Z,101428.16
2022-08-23T05:17:06.036Z,101437.56
2022-08-23T05:22:34.051Z,101441.84
2022-08-23T05:28:30.096Z,101439.44
2022-08-23T05:33:55.582Z,101433.75
2022-08-23T05:39:44.754Z,101448.19
2022-08-23T05:45:09.818Z,101453.84
2022-08-23T05:50:37.186Z,101462.72
2022-08-23T05:56:09.981Z,101462.44
2022-08-23T06:01:34.065Z,101436.72
2022-08-23T06:07:06.603Z,101449.41
2022-08-23T06:12:29.779Z,101449.00
2022-08-23T06:17:53.125Z,101443.69
2022-08-23T06:23:18.498Z,101434.13
2022-08-23T06:28:50.839Z,101433.63
2022-08-23T06:34:19.334Z,101436.75
2022-08-23T06:39:59.725Z,101451.50
2022-08-23T06:45:35.466Z,101445.22
2022-08-23T06:50:59.377Z,101454.22
2022-08-23T06:56:36.256Z,101450.44
2022-08-23T07:02:05.808Z,101456.41
2022-08-23T07:07:49.564Z,101461.06
2022-08-23T07:13:18.383Z,101457.06
2022-08-23T07:18:41.795Z,101476.31
2022-08-23T07:24:05.303Z,101476.06
2022-08-23T07:29:30.915Z,101473.59
2022-08-23T07:34:54.478Z,101482.13
2022-08-23T07:40:20.235Z,101484.81
2022-08-23T07:45:46.173Z,101478.41
2022-08-23T07:51:13.298Z,101479.69
2022-08-23T07:56:37.342Z,101485.19
2022-08-23T08:02:11.647Z,101483.47
2022-08-23T08:07:37.734Z,101486.72
2022-08-23T08:13:01.153Z,101496.69
2022-08-23T08:18:26.580Z,101500.97
2022-08-23T08:24:19.123Z,101519.66
2022-08-23T08:29:48.498Z,101511.34
2022-08-23T08:35:13.500Z,101509.41
2022-08-23T08:40:41.403Z,101507.44
2022-08-23T08:46:08.141Z,101510.44
2022-08-23T08:51:45.401Z,101515.25
2022-08-23T08:57:09.571Z,101519.75
2022-08-23T09:02:40.224Z,101528.16
2022-08-23T09:08:30.388Z,101525.75
2022-08-23T09:14:30.109Z,101531.00
2022-08-23T09:19:58.388Z,101514.50
2022-08-23T09:25:24.061Z,101524.31
2022-08-23T09:31:01.071Z,101517.34
2022-08-23T09:36:28.501Z,101503.06
2022-08-23T09:41:56.921Z,101508.13
2022-08-23T09:47:20.086Z,101503.53
2022-08-23T09:52:48.930Z,101506.53
2022-08-23T09:58:23.521Z,101498.63
2022-08-23T10:03:47.556Z,101510.09
2022-08-23T10:09:27.686Z,101508.59
2022-08-23T10:14:52.739Z,101466.72
2022-08-23T10:20:27.758Z,101503.97
2022-08-23T10:25:55.714Z,101497.25
2022-08-23T10:31:32.628Z,101498.97
2022-08-23T10:37:14.327Z,101500.97
2022-08-23T10:42:44.728Z,101497.56
2022-08-23T10:48:21.241Z,101491.13
2022-08-23T10:53:49.932Z,101495.06
2022-08-23T10:59:15.842Z,101479.81
2022-08-23T11:04:49.943Z,101491.75
2022-08-23T11:10:31.273Z,101483.69
2022-08-23T11:16:00.825Z,101490.47
2022-08-23T11:21:50.177Z,101499.44
2022-08-23T11:27:27.267Z,101502.47
2022-08-23T11:32:50.732Z,101511.00
2022-08-23T11:38:22.669Z,101509.69
2022-08-23T11:43:47.831Z,101507.69
2022-08-23T11:49:29.211Z,101518.78
2022-08-23T11:55:13.139Z,101497.41
2022-08-23T12:00:55.194Z,101530.44
2022-08-23T12:06:40.749Z,101534.13
2022-08-23T12:12:33.647Z,101513.69
2022-08-23T12:18:14.618Z,101525.47
2022-08-23T12:23:47.920Z,101522.06
2022-08-23T12:29:21.260Z,101517.13
2022-08-23T12:34:54.692Z,101514.53
2022-08-23T12:40:32.812Z,101514.00
2022-08-23T12:45:58.965Z,101515.59
2022-08-23T12:51:22.265Z,101521.94
2022-08-23T12:56:47.805Z,101507.91
2022-08-23T13:02:16.205Z,101521.47
2022-08-23T13:07:41.279Z,101513.94
2022-08-23T13:13:04.642Z,101500.41
2022-08-23T13:18:34.471Z,101517.56
2022-08-23T13:24:00.740Z,101509.94
2022-08-23T13:29:25.931Z,101508.63
2022-08-23T13:34:53.268Z,101510.59
2022-08-23T13:40:23.865Z,101513.59
2022-08-23T13:45:49.605Z,101513.84
2022-08-23T13:51:26.110Z,101510.91
2022-08-23T13:56:51.269Z,101512.41
2022-08-23T14:02:16.539Z,101506.69
2022-08-23T14:07:40.996Z,101501.94
2022-08-23T14:13:04.113Z,101506.63
2022-08-23T14:18:27.251Z,101514.13
2022-08-23T14:23:51.796Z,101527.72
2022-08-23T14:29:15.319Z,101522.06
2022-08-23T14:34:38.660Z,101520.63
2022-08-23T14:40:03.304Z,101529.88
2022-08-23T14:45:27.265Z,101528.16
2022-08-23T14:50:50.793Z,101528.88
2022-08-23T14:56:21.592Z,101533.25
2022-08-23T15:01:45.972Z,101526.56
2022-08-23T15:07:18.652Z,101547.41
2022-08-23T15:13:03.134Z,101553.09
2022-08-23T15:18:27.431Z,101550.00
2022-08-23T15:23:51.257Z,101550.59
2022-08-23T15:29:19.027Z,101556.31
2022-08-23T15:34:46.389Z,101551.72
2022-08-23T15:40:11.222Z,101551.38
2022-08-23T15:45:36.188Z,101556.13
2022-08-23T15:51:00.504Z,101552.47
2022-08-23T15:56:28.596Z,101540.38
2022-08-23T16:01:53.457Z,101552.16
2022-08-23T16:07:18.019Z,101542.84
2022-08-23T16:12:42.324Z,101540.50
2022-08-23T16:18:06.957Z,101540.78
2022-08-23T16:23:30.088Z,101524.41
2022-08-23T16:28:55.194Z,101527.28
2022-08-23T16:34:21.148Z,101531.13
2022-08-23T16:39:45.115Z,101535.06
2022-08-23T16:45:09.563Z,101545.94
2022-08-23T16:50:34.278Z,101544.50
2022-08-23T16:55:57.389Z,101553.59
2022-08-23T17:01:20.696Z,101558.06
2022-08-23T17:06:46.339Z,101555.69
2022-08-23T17:12:10.920Z,101559.56
2022-08-23T17:17:34.020Z,101564.38
2022-08-23T17:22:58.621Z,101555.72
2022-08-23T17:28:21.716Z,101556.34
2022-08-23T17:33:46.335Z,101560.84
2022-08-23T17:39:14.215Z,101561.31
2022-08-23T17:44:37.521Z,101578.63
2022-08-23T17:50:00.834Z,101574.31
2022-08-23T17:55:25.428Z,101594.78
2022-08-23T18:00:52.044Z,101585.88
2022-08-23T18:06:17.415Z,101593.81
2022-08-23T18:11:42.038Z,101589.28
2022-08-23T18:17:05.341Z,101596.09
2022-08-23T18:22:28.805Z,101606.16
2022-08-23T18:28:09.744Z,101615.53
2022-08-23T18:33:46.969Z,101620.06
2022-08-23T18:39:11.148Z,101631.16
2022-08-23T18:44:35.720Z,101637.56
2022-08-23T18:49:58.816Z,101644.81
2022-08-23T18:55:21.901Z,101651.78
2022-08-23T19:00:46.640Z,101647.53
2022-08-23T19:06:12.609Z,101651.06
2022-08-23T19:11:37.299Z,101661.63
2022-08-23T19:17:04.180Z,101646.78
2022-08-23T19:22:27.447Z,101670.63
2022-08-23T19:27:50.512Z,101670.63
2022-08-23T19:33:15.107Z,101679.84
2022-08-23T19:38:38.221Z,101635.94
2022-08-23T19:44:02.572Z,101682.00
2022-08-23T19:49:27.047Z,101689.63
2022-08-23T19:54:50.289Z,101691.66
2022-08-23T20:00:19.348Z,101690.28
2022-08-23T20:05:44.409Z,101695.06
2022-08-23T20:11:08.101Z,101669.53
2022-08-23T20:16:32.675Z,101693.72
2022-08-23T20:22:18.363Z,101704.31
2022-08-23T20:27:41.595Z,101702.69
2022-08-23T20:33:11.811Z,101700.44
2022-08-23T20:38:37.557Z,101705.78
2022-08-23T20:44:00.785Z,101715.59
2022-08-23T20:49:24.531Z,101712.41
2022-08-23T20:54:49.076Z,101711.72
2022-08-23T21:00:13.234Z,101716.09
2022-08-23T21:05:36.410Z,101706.50
2022-08-23T21:11:01.070Z,101709.44
2022-08-23T21:16:24.742Z,101714.56
2022-08-23T21:21:48.101Z,101720.38
2022-08-23T21:27:36.041Z,101724.97
2022-08-23T21:32:59.888Z,101728.16
2022-08-23T21:38:22.999Z,101714.91
2022-08-23T21:43:48.568Z,101721.22
2022-08-23T21:49:12.421Z,101711.88
2022-08-23T21:54:38.222Z,101715.59
2022-08-23T22:00:06.284Z,101716.00
2022-08-23T22:05:39.894Z,101722.56
2022-08-23T22:11:07.182Z,101726.59
2022-08-23T22:16:31.667Z,101719.06
2022-08-23T22:21:54.814Z,101726.59
2022-08-23T22:27:18.581Z,101711.09
2022-08-23T22:32:43.569Z,101707.81
2022-08-23T22:38:14.839Z,101712.03
2022-08-23T22:43:38.229Z,101696.22
2022-08-23T22:49:03.111Z,101720.38
2022-08-23T22:54:26.218Z,101718.94
2022-08-23T22:59:49.406Z,101719.41
2022-08-23T23:05:14.880Z,101721.59
2022-08-23T23:10:37.987Z,101723.69
2022-08-23T23:16:03.739Z,101709.09
2022-08-23T23:21:28.185Z,101715.47
2022-08-23T23:26:51.832Z,101713.00
2022-08-23T23:32:15.722Z,101709.69
2022-08-23T23:37:40.125Z,101714.41
2022-08-23T23:43:03.331Z,101718.28
2022-08-23T23:48:26.439Z,101723.63
2022-08-23T23:53:51.418Z,101717.47
2022-08-23T23:59:16.237Z,101722.34
